Time;durP1;ratioP1;P1;durP2;ratioP2;P2;SDS_P1;SDS_P2;PMS_P1;PMS_P2;Temp;Humidity;BMP_temperature;BMP_pressure;BME280_temperature;BME280_humidity;BME280_pressure;Samples;Min_cycle;Max_cycle;Signal;HPM_P1;HPM_P2
2023/06/08 00:00:39;;;;;;;0.40;0.40;;;;;;;13.01;90.74;99399.06;5069467;28;20055;-80
2023/06/08 00:03:09;;;;;;;0.38;0.38;;;;;;;12.94;90.95;99393.00;5074152;28;20044;-80
2023/06/08 00:05:43;;;;;;;0.40;0.40;;;;;;;12.90;91.12;99386.44;5070977;28;20422;-80
2023/06/08 00:08:11;;;;;;;0.40;0.40;;;;;;;12.94;91.33;99397.59;5074314;28;20075;-80
2023/06/08 00:10:47;;;;;;;0.40;0.40;;;;;;;12.98;91.78;99399.53;5074122;28;20052;-80
2023/06/08 00:13:16;;;;;;;0.40;0.40;;;;;;;12.91;91.89;99395.38;5074136;28;20048;-81
2023/06/08 00:15:45;;;;;;;0.50;0.50;;;;;;;12.88;92.20;99388.56;5074604;28;20644;-80
2023/06/08 00:18:12;;;;;;;0.40;0.40;;;;;;;12.99;92.08;99395.78;5074422;28;20131;-80
2023/06/08 00:20:40;;;;;;;0.40;0.40;;;;;;;13.03;91.63;99406.91;5073564;28;20055;-80
2023/06/08 00:23:15;;;;;;;0.40;0.40;;;;;;;13.02;91.01;99411.53;5072617;28;20048;-79
2023/06/08 00:25:44;;;;;;;0.40;0.40;;;;;;;12.88;90.45;99401.28;5072493;28;20044;-80
2023/06/08 00:28:11;;;;;;;0.40;0.40;;;;;;;12.79;90.43;99411.75;5073961;28;20076;-81
2023/06/08 00:30:38;;;;;;;0.40;0.40;;;;;;;12.70;90.55;99411.34;5073565;28;20044;-79
2023/06/08 00:33:06;;;;;;;0.40;0.40;;;;;;;12.57;91.15;99407.09;5072709;28;20057;-80
2023/06/08 00:35:37;;;;;;;0.40;0.40;;;;;;;12.51;91.47;99405.38;5072058;28;20072;-80
2023/06/08 00:38:04;;;;;;;0.40;0.40;;;;;;;12.48;91.89;99403.19;5073372;28;20048;-80
2023/06/08 00:40:31;;;;;;;0.40;0.40;;;;;;;12.45;91.79;99411.75;5073388;28;20428;-80
2023/06/08 00:42:58;;;;;;;0.40;0.40;;;;;;;12.35;91.85;99408.91;5072388;28;20052;-80
2023/06/08 00:45:26;;;;;;;0.40;0.40;;;;;;;12.36;92.31;99419.50;5072223;28;20056;-80
2023/06/08 00:47:53;;;;;;;0.40;0.40;;;;;;;12.37;92.25;99417.59;5073324;28;20052;-81
2023/06/08 00:50:23;;;;;;;0.43;0.43;;;;;;;12.27;92.60;99414.72;5073061;28;20534;-80
2023/06/08 00:52:50;;;;;;;0.40;0.40;;;;;;;12.24;93.15;99417.94;5071560;28;20485;-81
2023/06/08 00:55:19;;;;;;;0.40;0.40;;;;;;;12.21;93.68;99410.31;5072181;28;20142;-80
2023/06/08 00:57:47;;;;;;;0.40;0.40;;;;;;;12.10;94.35;99407.44;5072842;28;20048;-80
2023/06/08 01:00:15;;;;;;;0.40;0.40;;;;;;;12.07;94.53;99421.44;5073196;28;20149;-81
2023/06/08 01:02:43;;;;;;;0.40;0.40;;;;;;;12.02;94.94;99426.75;5071597;28;20136;-80
2023/06/08 01:05:16;;;;;;;0.40;0.40;;;;;;;11.99;95.25;99423.72;5072943;28;20059;-81
2023/06/08 01:07:57;;;;;;;0.40;0.40;;;;;;;11.99;95.68;99426.44;5072426;28;20573;-80
2023/06/08 01:10:38;;;;;;;0.40;0.40;;;;;;;11.97;96.01;99433.97;5071864;28;20052;-80
2023/06/08 01:13:16;;;;;;;0.40;0.40;;;;;;;11.89;96.03;99429.75;5071480;28;20048;-80
2023/06/08 01:15:48;;;;;;;0.40;0.40;;;;;;;11.77;96.13;99435.19;5071530;28;20063;-81
2023/06/08 01:18:22;;;;;;;0.40;0.40;;;;;;;11.66;96.34;99426.06;5055037;28;20049;-80
2023/06/08 01:21:11;;;;;;;0.50;0.50;;;;;;;11.68;96.64;99428.53;5071453;28;20053;-80
2023/06/08 01:24:13;;;;;;;0.40;0.40;;;;;;;11.68;96.57;99433.94;5038632;28;20170;-80
2023/06/08 01:26:43;;;;;;;0.40;0.40;;;;;;;11.56;96.46;99422.34;5071313;28;20048;-80
2023/06/08 01:29:13;;;;;;;0.40;0.40;;;;;;;11.63;96.13;99426.56;5054985;28;20101;-80
2023/06/08 01:31:40;;;;;;;0.40;0.40;;;;;;;11.62;96.18;99429.47;5072450;28;20552;-80
2023/06/08 01:34:09;;;;;;;0.40;0.40;;;;;;;11.67;96.21;99435.84;5071458;28;20434;-80
2023/06/08 01:36:44;;;;;;;0.40;0.40;;;;;;;11.68;96.31;99433.94;5071006;28;20053;-80
2023/06/08 01:39:41;;;;;;;0.40;0.40;;;;;;;11.67;96.16;99433.13;5072701;28;20529;-80
2023/06/08 01:42:10;;;;;;;0.50;0.50;;;;;;;11.63;95.91;99426.56;5071591;28;20449;-80
2023/06/08 01:44:45;;;;;;;0.40;0.40;;;;;;;11.69;95.39;99436.38;5072197;28;20048;-80
2023/06/08 01:47:14;;;;;;;0.40;0.40;;;;;;;11.73;94.83;99430.53;5072430;28;20133;-81
2023/06/08 01:49:42;;;;;;;0.40;0.40;;;;;;;11.71;94.38;99418.06;5072130;28;20135;-79
2023/06/08 01:52:10;;;;;;;0.40;0.40;;;;;;;11.80;93.87;99423.06;5072251;28;20441;-80
2023/06/08 01:54:37;;;;;;;0.40;0.40;;;;;;;11.79;93.09;99413.31;5071084;28;20052;-81
2023/06/08 01:57:06;;;;;;;0.40;0.40;;;;;;;11.85;92.62;99423.16;5070975;28;20531;-81
2023/06/08 01:59:33;;;;;;;0.40;0.40;;;;;;;11.83;92.30;99430.72;5070879;28;20090;-80
2023/06/08 02:02:03;;;;;;;0.40;0.40;;;;;;;11.87;91.73;99431.88;5070965;28;20131;-81
2023/06/08 02:04:30;;;;;;;0.45;0.45;;;;;;;11.90;90.95;99426.81;5070535;28;20450;-80
2023/06/08 02:06:58;;;;;;;0.40;0.40;;;;;;;11.95;90.16;99426.09;5072183;28;20056;-80
2023/06/08 02:09:25;;;;;;;0.40;0.40;;;;;;;12.03;89.61;99428.41;5072174;28;20132;-79
2023/06/08 02:12:11;;;;;;;0.50;0.50;;;;;;;12.08;88.76;99433.91;5070808;28;20388;-81
2023/06/08 02:14:39;;;;;;;0.40;0.40;;;;;;;12.03;88.40;99414.88;5071733;28;20099;-81
2023/06/08 02:17:06;;;;;;;0.40;0.40;;;;;;;12.12;87.91;99428.81;5070731;28;20779;-79
2023/06/08 02:19:34;;;;;;;0.40;0.40;;;;;;;12.25;87.78;99433.09;5071629;28;20059;-81
2023/06/08 02:22:02;;;;;;;0.40;0.40;;;;;;;12.22;87.38;99429.00;5071894;28;20135;-81
2023/06/08 02:24:31;;;;;;;0.40;0.40;;;;;;;12.33;87.04;99440.78;5070435;28;20135;-81
2023/06/08 02:26:58;;;;;;;0.40;0.40;;;;;;;12.39;86.92;99436.31;5070620;28;20415;-80
2023/06/08 02:29:26;;;;;;;0.40;0.40;;;;;;;12.44;86.49;99433.69;5071082;28;20049;-80
2023/06/08 02:31:57;;;;;;;0.50;0.50;;;;;;;12.43;86.16;99430.16;5071129;28;20054;-80
2023/06/08 02:34:24;;;;;;;0.40;0.40;;;;;;;12.48;85.74;99427.53;5086822;28;20056;-80
2023/06/08 02:36:52;;;;;;;0.40;0.40;;;;;;;12.60;85.59;99440.16;5069576;28;20059;-79
2023/06/08 02:39:19;;;;;;;0.40;0.40;;;;;;;12.67;85.17;99440.81;5071067;28;20467;-80
2023/06/08 02:41:48;;;;;;;0.40;0.40;;;;;;;12.78;84.57;99448.81;5069710;28;20041;-79
2023/06/08 02:44:15;;;;;;;0.30;0.30;;;;;;;12.85;84.00;99448.66;5070875;28;20045;-81
2023/06/08 02:46:47;;;;;;;0.40;0.40;;;;;;;12.95;82.97;99442.56;5069716;28;20056;-80
2023/06/08 02:49:17;;;;;;;0.40;0.40;;;;;;;13.03;82.67;99447.56;5070076;28;20045;-81
2023/06/08 02:51:44;;;;;;;0.40;0.40;;;;;;;13.16;82.69;99449.91;5070860;28;20135;-80
2023/06/08 02:54:11;;;;;;;0.40;0.40;;;;;;;13.27;82.37;99450.91;5069611;28;20048;-81
2023/06/08 02:56:40;;;;;;;0.40;0.40;;;;;;;13.34;81.37;99451.56;5069698;28;20072;-81
2023/06/08 02:59:07;;;;;;;0.40;0.40;;;;;;;13.51;81.01;99450.66;5070764;28;20523;-81
2023/06/08 03:01:36;;;;;;;0.40;0.40;;;;;;;13.62;80.60;99455.97;5069335;28;20037;-80
2023/06/08 03:04:12;;;;;;;0.50;0.50;;;;;;;13.70;79.80;99440.28;5069307;28;20090;-81
2023/06/08 03:06:53;;;;;;;0.40;0.40;;;;;;;13.85;79.37;99451.31;5085827;28;20063;-80
2023/06/08 03:09:22;;;;;;;0.40;0.40;;;;;;;13.92;79.51;99448.41;5069577;28;20055;-81
2023/06/08 03:11:54;;;;;;;0.40;0.40;;;;;;;13.98;79.36;99450.09;5069471;28;20136;-80
2023/06/08 03:14:28;;;;;;;0.40;0.40;;;;;;;14.03;79.39;99458.28;5069594;28;20497;-80
2023/06/08 03:17:02;;;;;;;0.40;0.40;;;;;;;14.03;79.26;99452.88;5052500;28;20061;-81
2023/06/08 03:19:35;;;;;;;0.40;0.40;;;;;;;14.12;78.55;99461.34;5054105;28;20044;-80
2023/06/08 03:22:06;;;;;;;0.40;0.40;;;;;;;14.16;78.12;99466.00;5069195;28;20197;-80
2023/06/08 03:24:58;;;;;;;0.40;0.40;;;;;;;14.26;76.78;99468.81;5068594;28;20113;-82
2023/06/08 03:27:26;;;;;;;0.40;0.40;;;;;;;14.36;75.79;99472.72;5052727;28;20521;-82
2023/06/08 03:29:55;;;;;;;0.40;0.40;;;;;;;14.45;74.65;99466.53;5066339;28;20458;-80
2023/06/08 03:32:30;;;;;;;0.40;0.40;;;;;;;14.53;74.02;99473.41;5063687;28;20053;-81
2023/06/08 03:34:57;;;;;;;0.40;0.40;;;;;;;14.62;73.81;99477.31;5055784;28;20144;-80
2023/06/08 03:37:25;;;;;;;0.40;0.40;;;;;;;14.72;73.51;99476.56;5058226;28;20141;-80
2023/06/08 03:39:52;;;;;;;0.40;0.40;;;;;;;14.77;73.01;99468.47;5071601;28;20215;-80
2023/06/08 03:42:20;;;;;;;0.40;0.40;;;;;;;14.91;73.01;99474.25;5072359;28;20055;-81
2023/06/08 03:44:52;;;;;;;0.40;0.40;;;;;;;14.98;72.39;99466.69;5062138;28;20102;-81
2023/06/08 03:47:21;;;;;;;0.40;0.40;;;;;;;15.07;72.31;99467.84;5068193;28;20049;-80
2023/06/08 03:49:49;;;;;;;0.40;0.40;;;;;;;15.16;72.17;99477.13;5067254;28;20090;-81
2023/06/08 03:52:17;;;;;;;0.40;0.40;;;;;;;15.26;71.96;99475.56;5066994;28;20048;-80
2023/06/08 03:54:45;;;;;;;0.40;0.40;;;;;;;15.31;72.00;99465.50;5066457;28;20423;-79
2023/06/08 03:57:15;;;;;;;0.40;0.40;;;;;;;15.48;72.06;99473.50;5057588;28;20044;-81
2023/06/08 03:59:43;;;;;;;0.40;0.40;;;;;;;15.68;71.99;99480.91;5068516;28;20063;-80
2023/06/08 04:02:11;;;;;;;0.40;0.40;;;;;;;15.77;71.94;99490.25;5051615;28;20056;-81
2023/06/08 04:04:39;;;;;;;0.40;0.40;;;;;;;15.86;71.69;99490.53;5069397;28;20048;-80
2023/06/08 04:07:07;;;;;;;0.40;0.40;;;;;;;15.94;71.30;99484.56;5068171;28;20056;-81
2023/06/08 04:09:49;;;;;;;0.40;0.40;;;;;;;15.85;70.74;99471.75;5067948;28;20071;-81
2023/06/08 04:12:16;;;;;;;0.40;0.40;;;;;;;16.07;70.67;99490.59;5063088;28;20052;-81
2023/06/08 04:14:43;;;;;;;0.40;0.40;;;;;;;16.12;70.49;99491.41;5060860;28;20044;-80
2023/06/08 04:17:13;;;;;;;0.40;0.40;;;;;;;16.20;70.10;99495.50;5064810;28;20056;-82
2023/06/08 04:19:42;;;;;;;0.40;0.40;;;;;;;16.26;69.07;99499.91;5064632;28;20376;-82
2023/06/08 04:24:55;;;;;;;0.40;0.40;;;;;;;16.24;67.75;99485.72;5055598;28;20107;-82
2023/06/08 04:27:24;;;;;;;0.40;0.40;;;;;;;16.36;67.58;99499.91;5058860;28;20052;-81
2023/06/08 04:29:52;;;;;;;0.40;0.40;;;;;;;16.50;67.24;99500.19;5084919;28;20048;-81
2023/06/08 04:32:22;;;;;;;0.40;0.40;;;;;;;16.59;67.58;99487.66;5067719;28;20064;-81
2023/06/08 04:34:53;;;;;;;0.40;0.40;;;;;;;16.59;66.48;99486.84;5066071;28;20090;-82
2023/06/08 04:37:21;;;;;;;0.40;0.40;;;;;;;16.71;65.83;99492.84;5065392;28;20059;-83
2023/06/08 04:39:48;;;;;;;0.40;0.40;;;;;;;16.69;65.31;99487.66;5049235;28;20515;-80
2023/06/08 04:42:23;;;;;;;0.40;0.40;;;;;;;16.74;64.81;99489.56;5051339;28;20056;-80
2023/06/08 04:44:50;;;;;;;0.32;0.32;;;;;;;16.87;65.32;99493.69;5082370;28;20070;-80
2023/06/08 04:47:19;;;;;;;0.40;0.40;;;;;;;16.93;65.15;99478.94;5062869;28;20091;-81
2023/06/08 04:49:51;;;;;;;0.40;0.40;;;;;;;17.15;64.92;99489.53;5053071;28;20094;-83
2023/06/08 04:52:26;;;;;;;0.30;0.30;;;;;;;17.22;64.23;99484.63;5049232;28;20057;-81
2023/06/08 04:54:53;;;;;;;0.38;0.38;;;;;;;17.22;64.85;99478.34;5071489;28;20052;-82
2023/06/08 04:57:22;;;;;;;0.40;0.40;;;;;;;17.25;63.84;99469.63;5052029;28;20529;-80
2023/06/08 04:59:49;;;;;;;0.40;0.40;;;;;;;17.43;63.74;99495.47;5067047;28;20044;-80
2023/06/08 05:02:17;;;;;;;0.30;0.30;;;;;;;17.57;63.48;99507.41;5048649;28;20498;-81
2023/06/08 05:04:46;;;;;;;0.30;0.30;;;;;;;17.65;59.57;99504.13;5026497;28;20098;-81
2023/06/08 05:07:14;;;;;;;0.38;0.38;;;;;;;17.79;60.42;99500.78;5070868;28;20059;-82
2023/06/08 05:09:42;;;;;;;0.40;0.40;;;;;;;17.88;59.47;99501.88;5068304;28;20052;-81
2023/06/08 05:12:10;;;;;;;0.30;0.30;;;;;;;17.88;58.21;99496.44;5071669;28;20056;-82
2023/06/08 05:14:51;;;;;;;0.40;0.40;;;;;;;18.01;57.52;99508.66;5073721;28;20060;-82
2023/06/08 05:17:24;;;;;;;0.30;0.30;;;;;;;18.13;57.02;99503.66;5072634;28;20056;-81
2023/06/08 05:19:55;;;;;;;0.40;0.40;;;;;;;18.19;56.23;99497.06;5072599;28;20490;-82
2023/06/08 05:22:25;;;;;;;0.40;0.40;;;;;;;18.17;55.41;99483.66;5071218;28;20051;-82
2023/06/08 05:24:52;;;;;;;0.30;0.30;;;;;;;18.36;55.73;99508.44;5087235;28;20478;-83
2023/06/08 05:27:20;;;;;;;0.40;0.40;;;;;;;18.35;54.23;99495.84;5072185;28;20109;-82
2023/06/08 05:29:47;;;;;;;0.38;0.38;;;;;;;18.39;52.35;99486.00;5071015;28;20131;-82
2023/06/08 05:32:14;;;;;;;0.40;0.40;;;;;;;18.56;51.08;99501.16;5072867;28;20411;-81
2023/06/08 05:37:46;;;;;;;0.40;0.40;;;;;;;18.62;51.09;99511.78;5052523;28;20577;-82
2023/06/08 05:40:17;;;;;;;0.40;0.40;;;;;;;18.55;51.33;99497.63;5063427;28;20049;-81
2023/06/08 05:42:45;;;;;;;0.40;0.40;;;;;;;18.68;45.32;99511.75;5070618;28;20063;-80
2023/06/08 05:48:01;;;;;;;0.40;0.40;;;;;;;18.58;44.02;99501.69;5070881;28;20044;-81
2023/06/08 05:50:28;;;;;;;0.30;0.30;;;;;;;18.70;42.28;99512.28;5071211;28;20048;-80
2023/06/08 05:52:55;;;;;;;0.30;0.30;;;;;;;18.56;41.70;99501.16;5072094;28;20083;-80
2023/06/08 05:55:24;;;;;;;0.30;0.30;;;;;;;18.53;42.15;99508.00;5072053;28;20053;-81
2023/06/08 05:58:11;;;;;;;0.30;0.30;;;;;;;18.84;43.11;99510.56;5070338;28;20079;-82
2023/06/08 06:00:38;;;;;;;0.40;0.40;;;;;;;18.99;43.41;99507.69;5071569;28;20105;-82
2023/06/08 06:03:05;;;;;;;0.30;0.30;;;;;;;19.13;43.23;99507.00;5053300;28;20115;-81
2023/06/08 06:05:35;;;;;;;0.40;0.40;;;;;;;19.21;43.22;99503.63;5071928;28;20045;-83
2023/06/08 06:08:02;;;;;;;0.30;0.30;;;;;;;19.22;43.07;99505.28;5071853;28;20083;-81
2023/06/08 06:10:33;;;;;;;0.30;0.30;;;;;;;19.31;42.58;99511.72;5073661;28;20052;-81
2023/06/08 06:13:01;;;;;;;0.30;0.30;;;;;;;19.27;41.11;99510.69;5071616;28;20102;-80
2023/06/08 06:15:32;;;;;;;0.30;0.30;;;;;;;19.32;42.11;99507.91;5035965;28;20044;-81
2023/06/08 06:20:46;;;;;;;0.32;0.32;;;;;;;19.47;41.73;99515.09;5070804;28;20052;-79
2023/06/08 06:23:13;;;;;;;0.40;0.40;;;;;;;19.47;42.76;99513.22;5064998;28;20526;-81
2023/06/08 06:25:41;;;;;;;0.30;0.30;;;;;;;19.55;41.49;99513.69;5069950;28;20049;-81
2023/06/08 06:28:11;;;;;;;0.40;0.40;;;;;;;19.36;41.93;99475.28;5061123;28;20139;-79
2023/06/08 06:30:39;;;;;;;0.30;0.30;;;;;;;19.58;41.64;99499.41;5048746;28;20053;-80
2023/06/08 06:33:06;;;;;;;0.38;0.38;;;;;;;19.72;40.37;99518.69;5052606;28;20049;-80
2023/06/08 06:35:33;;;;;;;0.30;0.30;;;;;;;19.70;40.87;99519.81;5056535;28;20053;-80
2023/06/08 06:38:01;;;;;;;0.30;0.30;;;;;;;19.78;39.96;99512.06;5072271;28;20530;-80
2023/06/08 06:40:28;;;;;;;0.30;0.30;;;;;;;19.85;40.63;99509.75;5072346;28;20143;-80
2023/06/08 06:42:56;;;;;;;0.30;0.30;;;;;;;19.96;40.86;99515.94;5071537;28;20053;-81
2023/06/08 06:45:25;;;;;;;0.40;0.40;;;;;;;19.97;40.86;99515.63;5070286;28;20044;-80
2023/06/08 06:47:55;;;;;;;0.30;0.30;;;;;;;19.91;40.69;99514.06;5071345;28;20051;-80
2023/06/08 06:50:22;;;;;;;0.30;0.30;;;;;;;19.89;40.32;99500.66;5071284;28;20044;-80
2023/06/08 06:52:49;;;;;;;0.30;0.30;;;;;;;20.10;40.01;99525.03;5069999;28;20045;-81
2023/06/08 06:55:16;;;;;;;0.30;0.30;;;;;;;20.09;39.80;99515.22;5071137;28;20076;-81
2023/06/08 06:57:45;;;;;;;0.32;0.32;;;;;;;20.17;39.83;99517.28;5070927;28;20048;-81
2023/06/08 07:00:12;;;;;;;0.30;0.30;;;;;;;20.12;39.96;99496.25;5070044;28;20533;-81
2023/06/08 07:02:40;;;;;;;0.40;0.40;;;;;;;20.25;39.22;99507.56;5069602;28;20044;-80
2023/06/08 07:05:10;;;;;;;0.30;0.30;;;;;;;20.18;38.49;99515.34;5071249;28;20052;-81
2023/06/08 07:07:37;;;;;;;0.30;0.30;;;;;;;20.18;39.53;99526.31;5070759;28;20048;-80
2023/06/08 07:10:05;;;;;;;0.30;0.30;;;;;;;20.14;38.81;99528.84;5071342;28;20137;-80
2023/06/08 07:12:33;;;;;;;0.30;0.30;;;;;;;20.02;38.51;99533.94;5069534;28;20049;-80
2023/06/08 07:15:00;;;;;;;0.40;0.40;;;;;;;20.01;39.06;99529.56;5070674;28;20465;-81
2023/06/08 07:17:30;;;;;;;0.30;0.30;;;;;;;20.20;39.09;99527.63;5070761;28;20131;-79
2023/06/08 07:19:58;;;;;;;0.30;0.30;;;;;;;20.19;39.73;99512.31;5052666;28;20044;-81
2023/06/08 07:22:26;;;;;;;0.30;0.30;;;;;;;20.48;39.94;99522.31;5070586;28;20048;-80
2023/06/08 07:25:14;;;;;;;0.30;0.30;;;;;;;20.59;38.62;99510.13;5070851;28;20044;-81
2023/06/08 07:28:01;;;;;;;0.30;0.30;;;;;;;20.63;38.65;99511.13;5070599;28;20052;-81
2023/06/08 07:30:33;;;;;;;0.30;0.30;;;;;;;20.64;38.67;99512.78;5070424;28;20048;-81
2023/06/08 07:33:06;;;;;;;0.30;0.30;;;;;;;20.80;38.13;99512.53;5070375;28;20048;-81
2023/06/08 07:35:34;;;;;;;0.30;0.30;;;;;;;20.73;38.04;99521.13;5068658;28;20605;-81
2023/06/08 07:38:01;;;;;;;0.30;0.30;;;;;;;20.64;37.50;99526.50;5069430;28;20098;-81
2023/06/08 07:40:28;;;;;;;0.30;0.30;;;;;;;20.47;36.96;99518.75;5070455;28;20048;-81
2023/06/08 07:42:57;;;;;;;0.30;0.30;;;;;;;20.49;36.90;99521.22;5068949;28;20051;-81
2023/06/08 07:45:25;;;;;;;0.38;0.38;;;;;;;20.45;36.79;99525.66;5070399;28;20045;-83
2023/06/08 07:47:52;;;;;;;0.40;0.40;;;;;;;20.51;37.11;99508.03;5070328;28;20061;-81
2023/06/08 07:50:20;;;;;;;0.40;0.40;;;;;;;21.03;36.71;99522.53;5070083;28;20147;-80
2023/06/08 07:52:47;;;;;;;0.40;0.40;;;;;;;21.29;36.46;99519.34;5069887;28;20087;-80
2023/06/08 07:55:14;;;;;;;0.43;0.43;;;;;;;21.58;36.24;99517.16;5070155;28;20411;-80
2023/06/08 07:57:56;;;;;;;0.40;0.40;;;;;;;21.96;35.43;99519.69;5068851;28;20052;-80
2023/06/08 08:00:25;;;;;;;0.40;0.40;;;;;;;22.15;34.73;99514.03;5070580;28;20169;-80
2023/06/08 08:02:57;;;;;;;0.40;0.40;;;;;;;22.46;34.24;99516.13;5068814;28;20131;-80
2023/06/08 08:05:25;;;;;;;0.40;0.40;;;;;;;22.70;33.91;99519.38;5069986;28;20056;-82
2023/06/08 08:07:52;;;;;;;0.40;0.40;;;;;;;22.56;33.69;99507.63;5068702;28;20044;-80
2023/06/08 08:10:19;;;;;;;0.40;0.40;;;;;;;22.45;33.59;99515.28;5070196;28;20052;-81
2023/06/08 08:12:47;;;;;;;0.40;0.40;;;;;;;22.29;33.57;99519.53;5069844;28;20450;-80
2023/06/08 08:15:18;;;;;;;0.40;0.40;;;;;;;22.28;33.75;99517.91;5068340;28;20053;-80
2023/06/08 08:17:45;;;;;;;0.40;0.40;;;;;;;22.21;33.39;99520.28;5069779;28;20045;-81
2023/06/08 08:20:13;;;;;;;0.40;0.40;;;;;;;22.04;33.56;99516.19;5069683;28;20141;-80
2023/06/08 08:22:40;;;;;;;0.40;0.40;;;;;;;22.57;34.16;99519.44;5069671;28;20040;-80
2023/06/08 08:25:10;;;;;;;0.40;0.40;;;;;;;23.12;33.54;99509.00;5069631;28;20053;-81
2023/06/08 08:27:37;;;;;;;0.40;0.40;;;;;;;23.27;31.86;99502.28;5072248;28;20052;-81
2023/06/08 08:30:05;;;;;;;0.40;0.40;;;;;;;23.35;32.55;99514.47;5053888;28;20049;-80
2023/06/08 08:32:33;;;;;;;0.40;0.40;;;;;;;23.61;31.54;99513.75;5053965;28;20057;-80
2023/06/08 08:35:01;;;;;;;0.43;0.43;;;;;;;23.25;31.52;99521.03;5053462;28;20645;-79
2023/06/08 08:37:31;;;;;;;0.50;0.50;;;;;;;22.92;32.08;99515.00;5053503;28;20055;-80
2023/06/08 08:39:59;;;;;;;0.40;0.40;;;;;;;23.05;31.73;99510.56;5035696;28;20049;-81
2023/06/08 08:42:27;;;;;;;0.40;0.40;;;;;;;23.56;31.52;99510.00;5058074;28;20125;-81
2023/06/08 08:44:55;;;;;;;0.40;0.40;;;;;;;23.61;31.58;99511.78;5070843;28;20613;-83
2023/06/08 08:47:28;;;;;;;0.40;0.40;;;;;;;23.74;30.97;99515.59;5071858;28;20114;-80
2023/06/08 08:50:09;;;;;;;0.40;0.40;;;;;;;23.70;30.36;99509.91;5071721;28;20040;-82
2023/06/08 08:53:51;;;;;;;0.40;0.40;;;;;;;23.32;31.27;99501.31;5058607;28;20534;-81
2023/06/08 08:57:32;;;;;;;0.40;0.40;;;;;;;23.21;31.74;99497.22;5053190;28;20036;-83
2023/06/08 09:01:14;;;;;;;0.50;0.50;;;;;;;23.71;30.09;99507.94;5053151;28;20099;-82
2023/06/08 09:04:54;;;;;;;0.50;0.50;;;;;;;24.52;30.00;99504.69;5052947;28;20262;-82
2023/06/08 09:08:36;;;;;;;0.50;0.50;;;;;;;24.60;29.12;99506.63;5053524;28;20140;-81
2023/06/08 09:12:17;;;;;;;0.50;0.50;;;;;;;25.04;28.89;99490.81;5053321;28;20178;-82
2023/06/08 09:16:12;;;;;;;0.50;0.50;;;;;;;25.98;27.86;99503.78;5053028;28;20159;-82
2023/06/08 09:19:53;;;;;;;0.50;0.50;;;;;;;26.24;27.68;99497.25;5052389;28;20463;-82
2023/06/08 09:23:34;;;;;;;0.50;0.50;;;;;;;26.88;26.15;99482.22;5052174;28;20095;-82
2023/06/08 09:26:02;;;;;;;0.50;0.50;;;;;;;26.92;26.38;99485.91;5069220;28;20048;-81
2023/06/08 09:28:29;;;;;;;0.50;0.50;;;;;;;26.61;26.52;99483.59;5071416;28;20057;-81
2023/06/08 09:30:57;;;;;;;0.50;0.50;;;;;;;26.54;26.45;99470.34;5072428;28;20479;-82
2023/06/08 09:33:27;;;;;;;0.50;0.50;;;;;;;26.20;27.06;99482.47;5072597;28;20048;-83
2023/06/08 09:36:16;;;;;;;0.50;0.50;;;;;;;26.35;26.63;99484.63;5072213;28;20045;-81
2023/06/08 09:38:43;;;;;;;0.50;0.50;;;;;;;26.35;26.54;99490.16;5069527;28;20045;-82
2023/06/08 09:41:23;;;;;;;0.50;0.50;;;;;;;27.03;26.55;99470.47;5072350;28;20481;-82
2023/06/08 09:43:51;;;;;;;0.50;0.50;;;;;;;27.62;26.23;99456.22;5070929;28;20064;-81
2023/06/08 09:46:45;;;;;;;0.50;0.50;;;;;;;28.23;24.99;99460.88;5085100;28;20052;-83
2023/06/08 09:49:14;;;;;;;0.45;0.45;;;;;;;28.62;24.29;99466.75;5074834;28;20049;-77
2023/06/08 09:51:51;;;;;;;0.50;0.50;;;;;;;27.63;25.28;99471.69;5077098;28;20041;-78
2023/06/08 09:54:25;;;;;;;0.50;0.50;;;;;;;26.85;26.08;99463.50;5059851;28;20134;-82
2023/06/08 09:57:11;;;;;;;0.50;0.50;;;;;;;27.54;25.55;99461.88;5060571;28;20153;-80
2023/06/08 09:59:58;;;;;;;0.50;0.50;;;;;;;27.36;25.65;99461.31;4936953;28;10000974;-79
2023/06/08 10:03:09;;;;;;;0.50;0.50;;;;;;;27.66;25.81;99476.53;5087299;28;20647;-79
2023/06/08 10:05:44;;;;;;;0.50;0.50;;;;;;;28.75;24.57;99475.84;5042805;28;20045;-78
2023/06/08 10:08:20;;;;;;;0.40;0.40;;;;;;;29.03;24.37;99450.78;5032134;28;20110;-80
2023/06/08 10:10:47;;;;;;;0.50;0.50;;;;;;;28.96;24.30;99448.63;5032379;28;20511;-81
2023/06/08 10:13:15;;;;;;;0.50;0.50;;;;;;;28.85;24.67;99458.66;5048903;28;20044;-80
2023/06/08 10:15:43;;;;;;;0.50;0.50;;;;;;;29.04;23.85;99454.38;5048639;28;20086;-80
2023/06/08 10:18:11;;;;;;;0.50;0.50;;;;;;;29.39;23.33;99454.50;5033663;28;20088;-81
2023/06/08 10:20:38;;;;;;;0.50;0.50;;;;;;;29.49;23.49;99455.91;5035636;28;20049;-81
2023/06/08 10:23:06;;;;;;;0.50;0.50;;;;;;;29.44;23.46;99456.19;5050137;28;20055;-80
2023/06/08 10:25:34;;;;;;;0.50;0.50;;;;;;;29.37;23.27;99429.03;5057713;28;20083;-82
2023/06/08 10:28:08;;;;;;;0.50;0.50;;;;;;;30.16;23.21;99448.34;5068357;28;20075;-81
2023/06/08 10:30:44;;;;;;;0.50;0.50;;;;;;;30.36;22.42;99451.97;5068188;28;20045;-80
2023/06/08 10:33:20;;;;;;;0.50;0.50;;;;;;;30.96;22.43;99450.72;5052123;28;20482;-79
2023/06/08 10:36:06;;;;;;;0.50;0.50;;;;;;;31.43;21.96;99438.41;5032322;28;20048;-79
2023/06/08 10:38:38;;;;;;;0.28;0.28;;;;;;;30.13;22.39;99453.81;5064921;28;20052;-79
2023/06/08 10:41:06;;;;;;;0.50;0.50;;;;;;;30.14;22.97;99439.53;5063739;28;20053;-79
2023/06/08 10:43:33;;;;;;;0.50;0.50;;;;;;;31.21;21.90;99435.22;5064138;28;20053;-80
2023/06/08 10:46:04;;;;;;;0.20;0.20;;;;;;;30.02;22.74;99439.69;5060592;28;20067;-79
2023/06/08 10:48:39;;;;;;;0.50;0.50;;;;;;;30.17;23.14;99435.22;5054714;28;20057;-79
2023/06/08 10:51:10;;;;;;;0.50;0.50;;;;;;;30.20;22.58;99424.16;5072470;28;20068;-79
2023/06/08 10:53:56;;;;;;;0.50;0.50;;;;;;;31.73;22.11;99430.09;5058116;28;20140;-78
2023/06/08 10:56:27;;;;;;;0.43;0.43;;;;;;;33.43;20.54;99415.63;5028561;28;20044;-81
2023/06/08 10:58:58;;;;;;;0.40;0.40;;;;;;;34.01;20.30;99411.19;5058688;28;20486;-78
2023/06/08 11:01:31;;;;;;;0.40;0.40;;;;;;;33.21;20.10;99403.47;5054854;28;20067;-79
2023/06/08 11:03:59;;;;;;;0.50;0.50;;;;;;;32.43;20.64;99411.84;5057046;28;20049;-79
2023/06/08 11:06:32;;;;;;;0.50;0.50;;;;;;;31.52;21.60;99414.66;5061824;28;20057;-79
2023/06/08 11:09:03;;;;;;;0.45;0.45;;;;;;;30.99;22.02;99399.81;5070750;28;20103;-79
2023/06/08 11:11:31;;;;;;;0.50;0.50;;;;;;;31.59;21.54;99399.19;5069324;28;20525;-79
2023/06/08 11:14:00;;;;;;;0.20;0.20;;;;;;;32.14;20.91;99405.16;5068525;28;20044;-80
2023/06/08 11:19:18;;;;;;;0.40;0.40;;;;;;;29.80;23.02;99383.59;5063809;28;20102;-78
2023/06/08 11:21:46;;;;;;;0.10;0.10;;;;;;;29.28;23.45;99393.09;5065100;28;20072;-79
2023/06/08 11:24:20;;;;;;;0.40;0.40;;;;;;;28.30;24.34;99388.91;5037432;28;20051;-78
2023/06/08 11:27:02;;;;;;;0.50;0.50;;;;;;;28.72;24.32;99391.28;5059862;28;20045;-80
2023/06/08 11:29:32;;;;;;;0.20;0.20;;;;;;;28.99;24.33;99399.06;5039035;28;20059;-78
2023/06/08 11:32:10;;;;;;;0.50;0.50;;;;;;;30.79;22.61;99390.69;5058972;28;20488;-79
2023/06/08 11:34:45;;;;;;;0.20;0.20;;;;;;;31.24;22.02;99362.00;5056615;28;20183;-79
2023/06/08 11:37:35;;;;;;;0.40;0.40;;;;;;;31.42;21.20;99390.19;5076040;28;20068;-80
2023/06/08 11:40:12;;;;;;;0.10;0.10;;;;;;;28.39;24.12;99380.44;5069015;28;20084;-79
2023/06/08 11:42:41;;;;;;;0.20;0.20;;;;;;;27.42;25.54;99382.31;5068514;28;20052;-79
2023/06/08 11:45:10;;;;;;;0.20;0.20;;;;;;;28.67;24.59;99374.88;5059239;28;20049;-80
2023/06/08 11:47:39;;;;;;;0.10;0.10;;;;;;;28.23;25.17;99383.19;5082338;28;20048;-79
2023/06/08 11:50:08;;;;;;;0.20;0.20;;;;;;;27.07;25.82;99366.16;5084127;28;20487;-80
2023/06/08 11:52:38;;;;;;;0.20;0.20;;;;;;;28.57;24.49;99374.59;5069829;28;20044;-80
2023/06/08 11:55:13;;;;;;;0.50;0.50;;;;;;;29.70;23.79;99366.66;5068515;28;20189;-80
2023/06/08 11:57:41;;;;;;;0.50;0.50;;;;;;;31.52;21.78;99372.00;5067087;28;20064;-80
2023/06/08 12:00:31;;;;;;;0.30;0.30;;;;;;;31.23;21.73;99354.03;5058651;28;20143;-80
2023/06/08 12:03:00;;;;;;;0.50;0.50;;;;;;;29.65;23.29;99367.75;5068404;28;20053;-78
2023/06/08 12:05:31;;;;;;;0.50;0.50;;;;;;;31.20;22.03;99361.16;5062243;28;20519;-79
2023/06/08 12:08:00;;;;;;;0.50;0.50;;;;;;;32.58;20.57;99359.78;5081936;28;20048;-79
2023/06/08 12:10:35;;;;;;;0.50;0.50;;;;;;;33.54;19.50;99344.97;5061751;28;20094;-79
2023/06/08 12:13:09;;;;;;;0.40;0.40;;;;;;;34.36;18.83;99350.13;5052682;28;20396;-79
2023/06/08 12:15:44;;;;;;;0.40;0.40;;;;;;;35.05;18.56;99349.03;5061597;28;20057;-79